Time;durP1;ratioP1;P1;durP2;ratioP2;P2;SDS_P1;SDS_P2;PMS_P1;PMS_P2;Temp;Humidity;BMP_temperature;BMP_pressure;BME280_temperature;BME280_humidity;BME280_pressure;Samples;Min_cycle;Max_cycle;Signal;HPM_P1;HPM_P2
2023/04/26 00:01:28;;;;;;;10.73;10.13;;;;;;;;;;4997596;28;20041;-57
2023/04/26 00:03:55;;;;;;;10.95;10.25;;;;;;;;;;4993606;28;20070;-57
2023/04/26 00:06:20;;;;;;;11.43;10.73;;;;;;;;;;4995742;28;20136;-58
2023/04/26 00:08:46;;;;;;;11.73;11.00;;;;;;;;;;4997315;28;20068;-57
2023/04/26 00:11:11;;;;;;;10.82;10.18;;;;;;;;;;5027847;28;20022;-57
2023/04/26 00:13:37;;;;;;;13.13;11.38;;;;;;;;;;4998038;28;20038;-56
2023/04/26 00:16:03;;;;;;;10.75;10.05;;;;;;;;;;4998493;28;20462;-57
2023/04/26 00:18:30;;;;;;;11.90;11.20;;;;;;;;;;4996708;28;20057;-57
2023/04/26 00:20:56;;;;;;;11.18;10.48;;;;;;;;;;4993526;28;20113;-57
2023/04/26 00:23:21;;;;;;;11.45;10.75;;;;;;;;;;4997060;28;20543;-57
2023/04/26 00:25:46;;;;;;;10.55;9.95;;;;;;;;;;4996107;28;20034;-57
2023/04/26 00:28:12;;;;;;;10.73;10.02;;;;;;;;;;4997027;28;20038;-57
2023/04/26 00:30:40;;;;;;;9.95;9.35;;;;;;;;;;4995703;28;20100;-57
2023/04/26 00:33:06;;;;;;;10.00;9.40;;;;;;;;;;4994025;28;20072;-58
2023/04/26 00:35:32;;;;;;;10.95;10.25;;;;;;;;;;4997098;28;20026;-58
2023/04/26 00:37:57;;;;;;;10.20;9.55;;;;;;;;;;4992102;28;20113;-58
2023/04/26 00:40:22;;;;;;;9.85;9.25;;;;;;;;;;4999441;28;20514;-57
2023/04/26 00:42:48;;;;;;;11.90;10.85;;;;;;;;;;4993504;28;20596;-59
2023/04/26 00:45:13;;;;;;;10.98;10.27;;;;;;;;;;4995444;28;20058;-58
2023/04/26 00:47:39;;;;;;;10.02;9.43;;;;;;;;;;4993672;28;20655;-61
2023/04/26 00:50:06;;;;;;;12.82;9.88;;;;;;;;;;4996290;28;20105;-59
2023/04/26 00:52:31;;;;;;;10.05;9.45;;;;;;;;;;5029490;28;20034;-59
2023/04/26 00:54:57;;;;;;;9.57;8.90;;;;;;;;;;4997373;28;20038;-61
2023/04/26 00:57:22;;;;;;;9.60;9.00;;;;;;;;;;4995634;28;20068;-64
2023/04/26 00:59:48;;;;;;;9.57;8.98;;;;;;;;;;4992437;28;20073;-57
2023/04/26 01:02:14;;;;;;;8.43;7.93;;;;;;;;;;4993840;28;20037;-59
2023/04/26 01:04:40;;;;;;;9.38;8.77;;;;;;;;;;4992667;28;20461;-57
2023/04/26 01:07:06;;;;;;;9.48;8.88;;;;;;;;;;4994159;28;20048;-57
2023/04/26 01:09:31;;;;;;;10.60;10.00;;;;;;;;;;4996559;28;20108;-57
2023/04/26 01:11:57;;;;;;;9.93;9.32;;;;;;;;;;4994454;28;20528;-57
2023/04/26 01:14:23;;;;;;;9.90;9.30;;;;;;;;;;4995452;28;20353;-57
2023/04/26 01:16:49;;;;;;;13.82;9.10;;;;;;;;;;4993846;28;20048;-57
2023/04/26 01:19:15;;;;;;;9.27;8.68;;;;;;;;;;4995594;28;20038;-57
2023/04/26 01:21:41;;;;;;;8.50;8.00;;;;;;;;;;4995796;28;20660;-57
2023/04/26 01:24:11;;;;;;;8.85;8.27;;;;;;;;;;4993821;28;20034;-57
2023/04/26 01:26:46;;;;;;;9.60;8.90;;;;;;;;;;4994818;28;20617;-57
2023/04/26 01:29:19;;;;;;;10.13;9.40;;;;;;;;;;4994336;28;20034;-57
2023/04/26 01:31:45;;;;;;;8.90;8.30;;;;;;;;;;4996183;28;20338;-57
2023/04/26 01:34:11;;;;;;;8.75;8.20;;;;;;;;;;4992772;28;20038;-57
2023/04/26 01:36:37;;;;;;;8.98;8.40;;;;;;;;;;4995161;28;20179;-57
2023/04/26 01:39:03;;;;;;;8.57;8.05;;;;;;;;;;4993660;28;20455;-57
2023/04/26 01:41:28;;;;;;;9.10;8.50;;;;;;;;;;4994895;28;20452;-57
2023/04/26 01:43:54;;;;;;;9.18;8.57;;;;;;;;;;4994201;28;20060;-57
2023/04/26 01:46:20;;;;;;;9.38;8.77;;;;;;;;;;4995555;28;20037;-57
2023/04/26 01:48:46;;;;;;;9.70;9.10;;;;;;;;;;5010824;28;20533;-57
2023/04/26 01:51:11;;;;;;;9.32;8.73;;;;;;;;;;4993232;28;20046;-57
2023/04/26 01:53:37;;;;;;;9.10;8.50;;;;;;;;;;4992500;28;20117;-57
2023/04/26 01:56:02;;;;;;;8.98;8.38;;;;;;;;;;4993221;28;20042;-57
2023/04/26 01:58:28;;;;;;;8.90;8.30;;;;;;;;;;4992271;28;20030;-57
2023/04/26 02:00:55;;;;;;;8.32;7.82;;;;;;;;;;4995260;28;20095;-56
2023/04/26 02:03:21;;;;;;;8.23;7.63;;;;;;;;;;5002271;28;20515;-57
2023/04/26 02:05:46;;;;;;;7.90;7.40;;;;;;;;;;4996226;28;20043;-61
2023/04/26 02:08:12;;;;;;;7.53;7.03;;;;;;;;;;4994126;28;20397;-62
2023/04/26 02:10:38;;;;;;;8.25;7.72;;;;;;;;;;4995831;28;20033;-61
2023/04/26 02:13:04;;;;;;;7.70;7.20;;;;;;;;;;4995527;28;20038;-61
2023/04/26 02:15:30;;;;;;;7.72;7.22;;;;;;;;;;5024711;28;20060;-61
2023/04/26 02:17:55;;;;;;;7.80;7.30;;;;;;;;;;4996047;28;20033;-62
2023/04/26 02:20:21;;;;;;;8.07;7.57;;;;;;;;;;4996579;28;20089;-60
2023/04/26 02:22:46;;;;;;;8.05;7.55;;;;;;;;;;4991841;28;20041;-62
2023/04/26 02:25:11;;;;;;;8.50;8.00;;;;;;;;;;4994416;28;20536;-62
2023/04/26 02:27:37;;;;;;;11.27;10.38;;;;;;;;;;4995336;28;20038;-62
2023/04/26 02:30:03;;;;;;;12.32;11.27;;;;;;;;;;4995223;28;20034;-62
2023/04/26 02:32:28;;;;;;;20.02;17.55;;;;;;;;;;4981564;28;20041;-62
2023/04/26 02:34:54;;;;;;;15.00;13.48;;;;;;;;;;4993337;28;20137;-62
2023/04/26 02:37:20;;;;;;;12.18;11.02;;;;;;;;;;4992398;28;20179;-61
2023/04/26 02:39:50;;;;;;;9.48;8.77;;;;;;;;;;4994113;28;20052;-62
2023/04/26 02:42:15;;;;;;;9.63;9.02;;;;;;;;;;4995635;28;20022;-62
2023/04/26 02:44:41;;;;;;;8.90;8.25;;;;;;;;;;4992795;28;20488;-62
2023/04/26 02:47:07;;;;;;;9.35;8.75;;;;;;;;;;4993949;28;20026;-61
2023/04/26 02:49:32;;;;;;;9.23;8.63;;;;;;;;;;4996445;28;20041;-60
2023/04/26 02:51:58;;;;;;;8.93;8.32;;;;;;;;;;4995257;28;20057;-61
2023/04/26 02:54:23;;;;;;;8.80;8.20;;;;;;;;;;4994557;28;20037;-61
2023/04/26 02:56:49;;;;;;;9.18;8.57;;;;;;;;;;4991737;28;20124;-62
2023/04/26 02:59:14;;;;;;;8.90;8.30;;;;;;;;;;5025408;28;20082;-61
2023/04/26 03:01:40;;;;;;;9.70;9.10;;;;;;;;;;4991741;28;20084;-62
2023/04/26 03:04:06;;;;;;;9.10;8.50;;;;;;;;;;4991907;28;20109;-60
2023/04/26 03:06:32;;;;;;;9.75;9.15;;;;;;;;;;4994627;28;20034;-61
2023/04/26 03:08:57;;;;;;;10.02;9.43;;;;;;;;;;5003518;28;20040;-62
2023/04/26 03:11:22;;;;;;;10.18;9.15;;;;;;;;;;4993998;28;20029;-60
2023/04/26 03:13:48;;;;;;;9.90;9.30;;;;;;;;;;4991951;28;20520;-61
2023/04/26 03:16:13;;;;;;;9.85;9.25;;;;;;;;;;4995708;28;20030;-60
2023/04/26 03:18:38;;;;;;;9.98;9.38;;;;;;;;;;4994288;28;20037;-61
2023/04/26 03:21:04;;;;;;;9.52;8.93;;;;;;;;;;4994450;28;20040;-62
2023/04/26 03:23:29;;;;;;;9.88;9.18;;;;;;;;;;4992429;28;20105;-62
2023/04/26 03:25:55;;;;;;;10.05;9.45;;;;;;;;;;4995764;28;20062;-61
2023/04/26 03:28:20;;;;;;;9.90;9.30;;;;;;;;;;4993461;28;20037;-60
2023/04/26 03:30:48;;;;;;;9.93;9.32;;;;;;;;;;5017214;28;20050;-61
2023/04/26 03:33:14;;;;;;;10.65;9.95;;;;;;;;;;4994809;28;20072;-61
2023/04/26 03:35:39;;;;;;;10.90;10.20;;;;;;;;;;4993838;28;20050;-62
2023/04/26 03:38:05;;;;;;;10.13;9.52;;;;;;;;;;4997036;28;20363;-60
2023/04/26 03:40:30;;;;;;;9.98;9.38;;;;;;;;;;4997404;28;20038;-61
2023/04/26 03:42:56;;;;;;;10.07;9.48;;;;;;;;;;4997978;28;20026;-62
2023/04/26 03:45:21;;;;;;;10.02;9.43;;;;;;;;;;4997772;28;20038;-62
2023/04/26 03:47:46;;;;;;;10.40;9.80;;;;;;;;;;4995975;28;20520;-62
2023/04/26 03:50:12;;;;;;;10.52;9.93;;;;;;;;;;4993649;28;20034;-62
2023/04/26 03:52:37;;;;;;;10.80;10.10;;;;;;;;;;5000068;28;20112;-62
2023/04/26 03:55:03;;;;;;;10.90;10.20;;;;;;;;;;4997534;28;20148;-61
2023/04/26 03:57:28;;;;;;;10.32;9.73;;;;;;;;;;4995000;28;20387;-61
2023/04/26 03:59:54;;;;;;;11.23;10.43;;;;;;;;;;4994666;28;20034;-62
2023/04/26 04:02:20;;;;;;;10.55;9.93;;;;;;;;;;4996070;28;20037;-62
2023/04/26 04:04:45;;;;;;;11.73;10.93;;;;;;;;;;4995484;28;20042;-61
2023/04/26 04:07:11;;;;;;;10.57;9.93;;;;;;;;;;4998121;28;20034;-63
2023/04/26 04:09:36;;;;;;;10.65;9.95;;;;;;;;;;4997223;28;20037;-61
2023/04/26 04:12:02;;;;;;;10.13;9.52;;;;;;;;;;4995385;28;20035;-61
2023/04/26 04:14:27;;;;;;;11.73;10.60;;;;;;;;;;4994946;28;20026;-62
2023/04/26 04:16:52;;;;;;;10.00;9.40;;;;;;;;;;4998143;28;21489;-61
2023/04/26 04:19:18;;;;;;;9.88;9.27;;;;;;;;;;4998989;28;20570;-61
2023/04/26 04:21:44;;;;;;;10.48;9.88;;;;;;;;;;4997527;28;20068;-62
2023/04/26 04:24:10;;;;;;;9.55;8.95;;;;;;;;;;4995630;28;20117;-62
2023/04/26 04:26:36;;;;;;;9.88;9.18;;;;;;;;;;4993936;28;20038;-61
2023/04/26 04:29:07;;;;;;;9.98;9.35;;;;;;;;;;4996498;28;20033;-62
2023/04/26 04:31:35;;;;;;;;;;;;;;;;;;4994479;28;20083;-62
2023/04/26 04:34:01;;;;;;;9.18;8.57;;;;;;;;;;4996883;28;19917;-60
2023/04/26 04:36:26;;;;;;;10.40;9.73;;;;;;;;;;4993697;28;20030;-62
2023/04/26 04:38:52;;;;;;;9.85;9.25;;;;;;;;;;4989354;28;20030;-60
2023/04/26 04:41:19;;;;;;;10.23;9.52;;;;;;;;;;5020016;28;20031;-61
2023/04/26 04:43:45;;;;;;;9.45;8.85;;;;;;;;;;4986354;28;20546;-61
2023/04/26 04:46:10;;;;;;;8.77;8.18;;;;;;;;;;4986877;28;20034;-62
2023/04/26 04:48:37;;;;;;;9.65;9.05;;;;;;;;;;4990777;28;20460;-61
2023/04/26 04:51:03;;;;;;;9.27;8.68;;;;;;;;;;4999793;28;20045;-61
2023/04/26 04:53:29;;;;;;;8.80;8.20;;;;;;;;;;4997023;28;20042;-60
2023/04/26 04:55:55;;;;;;;8.90;8.30;;;;;;;;;;4994650;28;20046;-61
2023/04/26 04:58:21;;;;;;;8.77;8.18;;;;;;;;;;4997084;28;20026;-62
2023/04/26 05:00:47;;;;;;;9.20;8.60;;;;;;;;;;4995479;28;20236;-62
2023/04/26 05:03:13;;;;;;;8.52;8.00;;;;;;;;;;4994175;28;20641;-62
2023/04/26 05:05:39;;;;;;;8.80;8.20;;;;;;;;;;4994286;28;20037;-62
2023/04/26 05:08:06;;;;;;;9.30;8.70;;;;;;;;;;4997996;28;20052;-60
2023/04/26 05:10:33;;;;;;;9.18;8.57;;;;;;;;;;4994228;28;20498;-60
2023/04/26 05:12:58;;;;;;;8.90;8.30;;;;;;;;;;4994171;28;20034;-61
2023/04/26 05:15:24;;;;;;;9.75;9.15;;;;;;;;;;5025453;28;20100;-61
2023/04/26 05:17:50;;;;;;;9.00;8.40;;;;;;;;;;4993078;28;20066;-61
2023/04/26 05:20:15;;;;;;;8.65;8.13;;;;;;;;;;4995324;28;20034;-60
2023/04/26 05:22:41;;;;;;;9.57;8.98;;;;;;;;;;4993370;28;20037;-61
2023/04/26 05:25:07;;;;;;;9.02;8.43;;;;;;;;;;4994692;28;20088;-61
2023/04/26 05:27:33;;;;;;;9.07;8.48;;;;;;;;;;5018179;28;20035;-62
2023/04/26 05:30:00;;;;;;;8.88;8.27;;;;;;;;;;4994131;28;20037;-62
2023/04/26 05:32:25;;;;;;;9.60;8.90;;;;;;;;;;4995978;28;20045;-62
2023/04/26 05:34:51;;;;;;;9.13;8.52;;;;;;;;;;5028272;28;20026;-61
2023/04/26 05:37:16;;;;;;;8.88;8.27;;;;;;;;;;4993978;28;20088;-61
2023/04/26 05:39:42;;;;;;;9.20;8.60;;;;;;;;;;4992734;28;20388;-60
2023/04/26 05:42:08;;;;;;;9.45;8.85;;;;;;;;;;4995074;28;20034;-61
2023/04/26 05:44:33;;;;;;;9.38;8.68;;;;;;;;;;4993808;28;20447;-60
2023/04/26 05:46:58;;;;;;;9.75;9.15;;;;;;;;;;4996160;28;20195;-61
2023/04/26 05:49:24;;;;;;;10.48;9.88;;;;;;;;;;4993993;28;20033;-61
2023/04/26 05:51:49;;;;;;;10.38;9.77;;;;;;;;;;4993039;28;20040;-61
2023/04/26 05:54:15;;;;;;;11.55;10.85;;;;;;;;;;4993260;28;20026;-57
2023/04/26 05:56:40;;;;;;;10.95;10.15;;;;;;;;;;4992894;28;20042;-57
2023/04/26 05:59:07;;;;;;;10.52;9.93;;;;;;;;;;4977192;28;20041;-57
2023/04/26 06:01:32;;;;;;;11.05;10.30;;;;;;;;;;4994807;28;20049;-58
2023/04/26 06:03:58;;;;;;;9.93;9.32;;;;;;;;;;4993408;28;20049;-58
2023/04/26 06:06:23;;;;;;;10.57;9.93;;;;;;;;;;5012311;28;20041;-58
2023/04/26 06:08:48;;;;;;;10.82;10.13;;;;;;;;;;4994755;28;20360;-58
2023/04/26 06:11:14;;;;;;;10.88;10.18;;;;;;;;;;4995285;28;20440;-57
2023/04/26 06:13:39;;;;;;;12.27;10.50;;;;;;;;;;4993200;28;20768;-58
2023/04/26 06:16:04;;;;;;;11.02;10.32;;;;;;;;;;4997372;28;20113;-58
2023/04/26 06:18:30;;;;;;;10.10;9.50;;;;;;;;;;4994488;28;20506;-58
2023/04/26 06:20:55;;;;;;;9.50;8.80;;;;;;;;;;4994118;28;20475;-58
2023/04/26 06:23:20;;;;;;;10.18;9.57;;;;;;;;;;4995623;28;20029;-58
2023/04/26 06:25:46;;;;;;;10.20;9.50;;;;;;;;;;4991460;28;20045;-58
2023/04/26 06:28:11;;;;;;;9.63;9.02;;;;;;;;;;4994744;28;20689;-58
2023/04/26 06:30:37;;;;;;;11.18;10.20;;;;;;;;;;5028112;28;20116;-58
2023/04/26 06:33:02;;;;;;;9.68;8.98;;;;;;;;;;4994710;28;20021;-58
2023/04/26 06:35:28;;;;;;;9.25;8.65;;;;;;;;;;4993740;28;20736;-58
2023/04/26 06:37:53;;;;;;;9.75;9.15;;;;;;;;;;4994374;28;20042;-58
2023/04/26 06:40:19;;;;;;;9.70;9.07;;;;;;;;;;4995055;28;20058;-58
2023/04/26 06:42:45;;;;;;;10.98;10.27;;;;;;;;;;4994223;28;20042;-58
2023/04/26 06:45:11;;;;;;;10.70;10.00;;;;;;;;;;4998043;28;20045;-58
2023/04/26 06:47:36;;;;;;;10.82;10.13;;;;;;;;;;4992664;28;20031;-58
2023/04/26 06:50:03;;;;;;;10.30;9.65;;;;;;;;;;4992250;28;20140;-58
2023/04/26 06:52:29;;;;;;;11.50;10.57;;;;;;;;;;4994310;28;20471;-58
2023/04/26 06:54:54;;;;;;;10.18;9.57;;;;;;;;;;4993612;28;20038;-58
2023/04/26 06:57:20;;;;;;;9.75;9.15;;;;;;;;;;4994162;28;20117;-58
2023/04/26 06:59:45;;;;;;;10.75;10.05;;;;;;;;;;4994866;28;20069;-58
2023/04/26 07:02:11;;;;;;;11.13;10.35;;;;;;;;;;4994214;28;20038;-58
2023/04/26 07:04:36;;;;;;;9.82;9.15;;;;;;;;;;4994505;28;20038;-58
2023/04/26 07:07:02;;;;;;;10.40;9.70;;;;;;;;;;4994841;28;20122;-58
2023/04/26 07:09:27;;;;;;;10.20;9.52;;;;;;;;;;4993517;28;20160;-58
2023/04/26 07:11:52;;;;;;;11.25;10.55;;;;;;;;;;4992293;28;20030;-58
2023/04/26 07:14:18;;;;;;;12.35;11.55;;;;;;;;;;4995671;28;20041;-57
2023/04/26 07:16:43;;;;;;;12.00;11.20;;;;;;;;;;4996659;28;20799;-58
2023/04/26 07:19:09;;;;;;;14.45;13.57;;;;;;;;;;4998082;28;20048;-58
2023/04/26 07:21:35;;;;;;;14.20;13.30;;;;;;;;;;5000179;28;20033;-58
2023/04/26 07:24:01;;;;;;;12.68;11.88;;;;;;;;;;4997573;28;20053;-58
2023/04/26 07:26:26;;;;;;;11.77;10.98;;;;;;;;;;4996170;28;20141;-58
2023/04/26 07:28:51;;;;;;;13.07;12.15;;;;;;;;;;4996899;28;20731;-58
2023/04/26 07:31:18;;;;;;;13.43;12.63;;;;;;;;;;4999133;28;20053;-58
2023/04/26 07:33:43;;;;;;;13.48;12.68;;;;;;;;;;4995396;28;20491;-58
2023/04/26 07:36:08;;;;;;;13.80;12.85;;;;;;;;;;4995334;28;20065;-62
2023/04/26 07:38:34;;;;;;;14.27;13.48;;;;;;;;;;5000441;28;20460;-61
2023/04/26 07:41:00;;;;;;;14.10;13.20;;;;;;;;;;4996675;28;20739;-61
2023/04/26 07:43:26;;;;;;;13.82;12.70;;;;;;;;;;4998290;28;20034;-61
2023/04/26 07:45:51;;;;;;;12.90;11.80;;;;;;;;;;4997323;28;20163;-61
2023/04/26 07:48:17;;;;;;;15.15;14.07;;;;;;;;;;4996750;28;20655;-61
2023/04/26 07:50:42;;;;;;;13.30;12.50;;;;;;;;;;4996733;28;20040;-61
2023/04/26 07:53:08;;;;;;;12.82;12.02;;;;;;;;;;4997421;28;20037;-62
2023/04/26 07:55:33;;;;;;;12.45;11.75;;;;;;;;;;4996927;28;20405;-58
2023/04/26 07:57:58;;;;;;;13.63;12.70;;;;;;;;;;4997532;28;20327;-58
2023/04/26 08:00:24;;;;;;;12.00;11.25;;;;;;;;;;4993467;28;20034;-58
2023/04/26 08:02:49;;;;;;;12.80;12.00;;;;;;;;;;4994612;28;20049;-60
2023/04/26 08:05:15;;;;;;;12.35;11.55;;;;;;;;;;4997070;28;20372;-61
2023/04/26 08:07:41;;;;;;;10.85;10.15;;;;;;;;;;4995920;28;20088;-61
2023/04/26 08:10:07;;;;;;;11.30;10.60;;;;;;;;;;4995366;28;20113;-62
2023/04/26 08:12:34;;;;;;;9.95;9.35;;;;;;;;;;4997342;28;20176;-62
2023/04/26 08:15:00;;;;;;;12.60;11.80;;;;;;;;;;4996796;28;20109;-60
2023/04/26 08:17:25;;;;;;;10.57;9.90;;;;;;;;;;4997612;28;20603;-61
2023/04/26 08:19:51;;;;;;;12.73;11.43;;;;;;;;;;4996796;28;20034;-60
2023/04/26 08:22:17;;;;;;;15.20;10.55;;;;;;;;;;4998476;28;20030;-62
2023/04/26 08:24:46;;;;;;;11.02;10.32;;;;;;;;;;4996340;28;20033;-58
2023/04/26 08:27:12;;;;;;;10.50;9.80;;;;;;;;;;4996339;28;20041;-58
2023/04/26 08:29:37;;;;;;;11.45;10.75;;;;;;;;;;4995195;28;20038;-60
2023/04/26 08:32:03;;;;;;;11.15;10.45;;;;;;;;;;4998746;28;20022;-62
2023/04/26 08:34:28;;;;;;;14.00;13.20;;;;;;;;;;4993864;28;20036;-58
2023/04/26 08:36:53;;;;;;;15.10;14.18;;;;;;;;;;4996654;28;20587;-58
2023/04/26 08:39:19;;;;;;;13.65;12.60;;;;;;;;;;4996253;28;20041;-58
2023/04/26 08:41:50;;;;;;;13.10;12.30;;;;;;;;;;4995924;28;20030;-58
2023/04/26 08:44:22;;;;;;;12.88;12.13;;;;;;;;;;5028138;28;20108;-60
2023/04/26 08:47:05;;;;;;;14.20;13.30;;;;;;;;;;5002223;28;20122;-58
2023/04/26 08:49:40;;;;;;;15.23;14.23;;;;;;;;;;4994726;28;20042;-58
2023/04/26 08:52:10;;;;;;;15.57;14.68;;;;;;;;;;4995309;28;20064;-58
2023/04/26 08:54:36;;;;;;;17.30;15.90;;;;;;;;;;4995535;28;20122;-58
2023/04/26 08:57:02;;;;;;;14.73;13.82;;;;;;;;;;4996918;28;20045;-58
2023/04/26 08:59:32;;;;;;;13.52;12.73;;;;;;;;;;4996960;28;20088;-61
2023/04/26 09:01:59;;;;;;;12.90;12.10;;;;;;;;;;4994740;28;20038;-60
2023/04/26 09:04:24;;;;;;;11.73;11.02;;;;;;;;;;4995607;28;20531;-61
2023/04/26 09:06:54;;;;;;;13.15;12.35;;;;;;;;;;4994751;28;20115;-61
2023/04/26 09:09:20;;;;;;;13.90;13.00;;;;;;;;;;4996416;28;20030;-61
2023/04/26 09:11:56;;;;;;;16.50;15.50;;;;;;;;;;4996473;28;20507;-62
2023/04/26 09:14:22;;;;;;;12.80;12.07;;;;;;;;;;4996636;28;20041;-61
2023/04/26 09:16:48;;;;;;;14.35;13.45;;;;;;;;;;4994433;28;20041;-61
2023/04/26 09:19:14;;;;;;;11.10;10.40;;;;;;;;;;5010485;28;20116;-61
2023/04/26 09:21:44;;;;;;;11.80;11.00;;;;;;;;;;4996579;28;20033;-61
2023/04/26 09:24:09;;;;;;;11.38;10.57;;;;;;;;;;4996931;28;20560;-62
2023/04/26 09:26:35;;;;;;;12.20;11.50;;;;;;;;;;4996434;28;20034;-61
2023/04/26 09:29:17;;;;;;;11.40;10.70;;;;;;;;;;4998754;28;20095;-61
2023/04/26 09:31:48;;;;;;;12.95;12.15;;;;;;;;;;4995623;28;20482;-62
2023/04/26 09:34:14;;;;;;;11.02;10.32;;;;;;;;;;4992422;28;20115;-61
2023/04/26 09:36:51;;;;;;;10.15;9.55;;;;;;;;;;4994510;28;20041;-61
2023/04/26 09:39:31;;;;;;;14.32;13.43;;;;;;;;;;4996244;28;20045;-60
2023/04/26 09:41:57;;;;;;;16.70;15.25;;;;;;;;;;4995711;28;20042;-61
2023/04/26 09:44:23;;;;;;;13.55;12.75;;;;;;;;;;4991917;28;20444;-60
2023/04/26 09:47:10;;;;;;;11.70;11.00;;;;;;;;;;4996796;28;20038;-58
2023/04/26 09:49:45;;;;;;;14.20;13.30;;;;;;;;;;4994694;28;20026;-58
2023/04/26 09:52:11;;;;;;;13.90;13.10;;;;;;;;;;4995584;28;20038;-58
2023/04/26 09:54:38;;;;;;;13.27;12.48;;;;;;;;;;4996203;28;20044;-60
2023/04/26 09:57:03;;;;;;;12.30;11.60;;;;;;;;;;5026567;28;20056;-58
2023/04/26 09:59:43;;;;;;;13.57;12.77;;;;;;;;;;4997651;28;20484;-58
2023/04/26 10:02:26;;;;;;;13.07;12.30;;;;;;;;;;4992989;28;20030;-58
2023/04/26 10:04:54;;;;;;;13.98;13.18;;;;;;;;;;4996810;28;20060;-61
2023/04/26 10:07:22;;;;;;;12.98;12.18;;;;;;;;;;4997430;28;20064;-57
2023/04/26 10:09:48;;;;;;;13.27;12.48;;;;;;;;;;4995677;28;20252;-57
2023/04/26 10:12:18;;;;;;;14.32;13.43;;;;;;;;;;4994120;28;20050;-57
2023/04/26 10:14:45;;;;;;;13.95;13.07;;;;;;;;;;4994594;28;20106;-58
2023/04/26 10:17:11;;;;;;;14.25;13.45;;;;;;;;;;4993719;28;20155;-60
2023/04/26 10:19:39;;;;;;;13.82;12.93;;;;;;;;;;5001315;28;20376;-62
2023/04/26 10:22:09;;;;;;;13.30;12.50;;;;;;;;;;4991617;28;20034;-62
2023/04/26 10:24:35;;;;;;;12.52;11.82;;;;;;;;;;4995126;28;20057;-62
2023/04/26 10:27:03;;;;;;;14.07;13.23;;;;;;;;;;4993675;28;20038;-61
2023/04/26 10:29:54;;;;;;;11.73;11.02;;;;;;;;;;4996485;28;20054;-62
2023/04/26 10:32:20;;;;;;;13.05;12.25;;;;;;;;;;4991106;28;20048;-62
2023/04/26 10:35:08;;;;;;;12.90;12.10;;;;;;;;;;4995982;28;20687;-62
2023/04/26 10:37:34;;;;;;;13.77;12.85;;;;;;;;;;4993124;28;20036;-62
2023/04/26 10:40:22;;;;;;;11.73;11.02;;;;;;;;;;4992436;28;20034;-62
2023/04/26 10:42:47;;;;;;;12.43;11.73;;;;;;;;;;4992871;28;20416;-61
2023/04/26 10:45:29;;;;;;;13.63;12.82;;;;;;;;;;4997384;28;20105;-62
2023/04/26 10:48:17;;;;;;;12.02;11.32;;;;;;;;;;4990754;28;20065;-60
2023/04/26 10:51:11;;;;;;;12.32;11.63;;;;;;;;;;4995659;28;20038;-58
2023/04/26 10:53:46;;;;;;;13.50;12.70;;;;;;;;;;4997998;28;20049;-57
2023/04/26 10:56:26;;;;;;;14.40;13.48;;;;;;;;;;4997993;28;20056;-58
2023/04/26 10:59:11;;;;;;;12.50;11.65;;;;;;;;;;4997988;28;20045;-62
2023/04/26 11:01:38;;;;;;;13.15;12.35;;;;;;;;;;4999471;28;20057;-62
2023/04/26 11:04:08;;;;;;;14.07;12.98;;;;;;;;;;4994109;28;20042;-62
2023/04/26 11:06:50;;;;;;;13.95;13.15;;;;;;;;;;4998656;28;20496;-61
2023/04/26 11:09:39;;;;;;;17.65;11.98;;;;;;;;;;5000424;28;20566;-62
2023/04/26 11:12:17;;;;;;;13.65;12.85;;;;;;;;;;4997648;28;20064;-62
2023/04/26 11:14:44;;;;;;;12.70;11.93;;;;;;;;;;4998939;28;20061;-62
2023/04/26 11:17:11;;;;;;;11.80;11.10;;;;;;;;;;4995843;28;20045;-62
2023/04/26 11:19:37;;;;;;;13.02;12.23;;;;;;;;;;5028298;28;20188;-62
2023/04/26 11:22:05;;;;;;;12.63;11.77;;;;;;;;;;4996547;28;20125;-62
2023/04/26 11:24:32;;;;;;;13.38;12.55;;;;;;;;;;4996984;28;20128;-61
2023/04/26 11:26:58;;;;;;;12.90;11.90;;;;;;;;;;4997582;28;20042;-62
2023/04/26 11:29:24;;;;;;;12.20;11.50;;;;;;;;;;4993908;28;20026;-61
2023/04/26 11:31:54;;;;;;;12.60;11.80;;;;;;;;;;4996410;28;20415;-62
2023/04/26 11:34:34;;;;;;;11.52;10.82;;;;;;;;;;4995874;28;20030;-62
2023/04/26 11:37:03;;;;;;;13.77;12.98;;;;;;;;;;4994222;28;20027;-61
2023/04/26 11:39:32;;;;;;;14.20;13.32;;;;;;;;;;5001263;28;20145;-62
2023/04/26 11:42:09;;;;;;;14.32;13.52;;;;;;;;;;5012950;28;20407;-58
2023/04/26 11:44:35;;;;;;;13.85;13.05;;;;;;;;;;4998451;28;20482;-61
2023/04/26 11:47:04;;;;;;;15.48;14.57;;;;;;;;;;5004750;28;20129;-61
2023/04/26 11:49:30;;;;;;;16.38;15.48;;;;;;;;;;4998182;28;20116;-58
2023/04/26 11:51:56;;;;;;;16.83;15.88;;;;;;;;;;4995069;28;20038;-58
2023/04/26 11:54:29;;;;;;;17.70;16.70;;;;;;;;;;4995692;28;20038;-58
2023/04/26 11:56:56;;;;;;;17.23;16.23;;;;;;;;;;4999310;28;20038;-58
2023/04/26 11:59:29;;;;;;;18.80;17.80;;;;;;;;;;4998445;28;20034;-60
2023/04/26 12:01:55;;;;;;;19.30;18.15;;;;;;;;;;4996379;28;20125;-61
2023/04/26 12:04:30;;;;;;;17.88;16.80;;;;;;;;;;4997814;28;20357;-62
2023/04/26 12:06:56;;;;;;;18.20;17.20;;;;;;;;;;4994703;28;20368;-61
2023/04/26 12:09:23;;;;;;;17.35;16.40;;;;;;;;;;5011498;28;20444;-62
2023/04/26 12:12:03;;;;;;;18.23;17.23;;;;;;;;;;4997617;28;20066;-62
2023/04/26 12:14:32;;;;;;;17.40;16.40;;;;;;;;;;4996287;28;20030;-62
2023/04/26 12:17:00;;;;;;;19.02;17.67;;;;;;;;;;4996163;28;20033;-62
2023/04/26 12:19:26;;;;;;;18.30;17.20;;;;;;;;;;4996655;28;20034;-61
2023/04/26 12:21:52;;;;;;;17.73;16.73;;;;;;;;;;4995009;28;20038;-61
2023/04/26 12:24:20;;;;;;;18.88;17.80;;;;;;;;;;4994934;28;20057;-62
2023/04/26 12:26:45;;;;;;;17.77;16.77;;;;;;;;;;4996606;28;20591;-61
2023/04/26 12:29:11;;;;;;;21.50;20.27;;;;;;;;;;4997605;28;20041;-61
2023/04/26 12:31:36;;;;;;;19.80;18.70;;;;;;;;;;4997403;28;20448;-61
2023/04/26 12:34:02;;;;;;;18.25;17.25;;;;;;;;;;4994627;28;20046;-58
2023/04/26 12:36:27;;;;;;;18.30;17.30;;;;;;;;;;5004040;28;20045;-59
2023/04/26 12:38:52;;;;;;;17.58;16.58;;;;;;;;;;4997947;28;20045;-59
2023/04/26 12:41:18;;;;;;;19.70;18.60;;;;;;;;;;4995859;28;20046;-58
2023/04/26 12:43:43;;;;;;;18.65;17.63;;;;;;;;;;4996169;28;20121;-58
2023/04/26 12:46:09;;;;;;;18.48;17.48;;;;;;;;;;4994228;28;20058;-58
2023/04/26 12:48:34;;;;;;;18.60;17.27;;;;;;;;;;4994294;28;20493;-58
2023/04/26 12:51:00;;;;;;;17.95;16.95;;;;;;;;;;4997489;28;20061;-58
2023/04/26 12:53:25;;;;;;;18.70;17.50;;;;;;;;;;4996030;28;20033;-58
2023/04/26 12:55:51;;;;;;;17.90;16.90;;;;;;;;;;4996679;28;20045;-58
2023/04/26 12:58:16;;;;;;;18.40;17.35;;;;;;;;;;4996459;28;20506;-58
2023/04/26 13:00:42;;;;;;;16.33;15.43;;;;;;;;;;4999264;28;20042;-58
2023/04/26 13:03:08;;;;;;;16.63;15.73;;;;;;;;;;4991120;28;20038;-59
2023/04/26 13:05:33;;;;;;;16.08;15.18;;;;;;;;;;4990842;28;20333;-57
2023/04/26 13:08:00;;;;;;;17.55;16.55;;;;;;;;;;4991090;28;20053;-58
2023/04/26 13:10:26;;;;;;;17.25;16.30;;;;;;;;;;4992949;28;20033;-62
2023/04/26 13:12:52;;;;;;;16.17;15.27;;;;;;;;;;4988775;28;20092;-62
2023/04/26 13:15:18;;;;;;;16.38;15.45;;;;;;;;;;4992254;28;20041;-60
2023/04/26 13:17:44;;;;;;;16.05;15.15;;;;;;;;;;4992771;28;20108;-61
2023/04/26 13:20:10;;;;;;;17.33;16.35;;;;;;;;;;4996652;28;20549;-61
2023/04/26 13:22:38;;;;;;;17.45;16.45;;;;;;;;;;4995390;28;20065;-61
2023/04/26 13:25:03;;;;;;;17.63;16.63;;;;;;;;;;4996751;28;20045;-61
2023/04/26 13:27:29;;;;;;;18.52;17.48;;;;;;;;;;4992590;28;20038;-62
2023/04/26 13:29:55;;;;;;;17.95;16.85;;;;;;;;;;4994607;28;20041;-63
2023/04/26 13:32:21;;;;;;;16.85;15.85;;;;;;;;;;4995003;28;20120;-62
2023/04/26 13:34:46;;;;;;;16.17;15.27;;;;;;;;;;4996246;28;20070;-63
2023/04/26 13:37:11;;;;;;;16.88;15.88;;;;;;;;;;5025500;28;20118;-65
2023/04/26 13:39:37;;;;;;;17.35;16.35;;;;;;;;;;4995008;28;20026;-65
2023/04/26 13:42:04;;;;;;;17.60;16.60;;;;;;;;;;4994284;28;20049;-66
2023/04/26 13:44:30;;;;;;;18.33;17.33;;;;;;;;;;4996083;28;20046;-64
2023/04/26 13:46:55;;;;;;;17.48;16.48;;;;;;;;;;4993987;28;20038;-66
2023/04/26 13:49:21;;;;;;;17.90;16.80;;;;;;;;;;4994527;28;20154;-65
2023/04/26 13:51:47;;;;;;;16.33;15.43;;;;;;;;;;4994916;28;20038;-65
2023/04/26 13:54:12;;;;;;;18.40;17.38;;;;;;;;;;4995558;28;20045;-64
2023/04/26 13:56:38;;;;;;;22.55;20.80;;;;;;;;;;4995031;28;20022;-64
2023/04/26 13:59:05;;;;;;;17.02;16.08;;;;;;;;;;4996891;28;20034;-66
2023/04/26 14:01:33;;;;;;;16.75;15.85;;;;;;;;;;4995931;28;20049;-64
2023/04/26 14:03:58;;;;;;;18.00;17.00;;;;;;;;;;5026522;28;20152;-63
2023/04/26 14:06:24;;;;;;;18.48;17.38;;;;;;;;;;4992639;28;20037;-63
2023/04/26 14:08:49;;;;;;;18.33;17.08;;;;;;;;;;4995944;28;20117;-63
2023/04/26 14:11:14;;;;;;;17.85;16.40;;;;;;;;;;4991413;28;20121;-63
2023/04/26 14:13:40;;;;;;;16.90;15.98;;;;;;;;;;4996969;28;20652;-62
2023/04/26 14:16:07;;;;;;;41.97;39.60;;;;;;;;;;4999715;28;20065;-64
2023/04/26 14:18:32;;;;;;;18.95;17.85;;;;;;;;;;4992711;28;20088;-64
2023/04/26 14:20:57;;;;;;;18.42;17.42;;;;;;;;;;4992188;28;20435;-63
2023/04/26 14:23:23;;;;;;;18.98;17.92;;;;;;;;;;4993488;28;20410;-64
2023/04/26 14:25:52;;;;;;;18.05;17.05;;;;;;;;;;4994712;28;20034;-64